Data Viewer
| City | State | Eastern Time | Source | Daily Temp Max | Daily Temp Min | Daily Dew Point Max | Daily Dew Point Min | Daily RH Max | Daily Min RH | Daily BP Max | Daily BP Min | Daily Precip | Daily Wind Max | Daily Wind Max Dir |
|---|---|---|---|---|---|---|---|---|---|---|---|---|---|---|
| Hillsborough-Duke | NJ | 2026-04-10 | Mesonet | 72 | 35 | 48 | 34 | 100 | 35 | 30.45 | 30.09 | 0.00 | 16 | SW |
| Hillsborough-Duke | NJ | 2026-04-26 | Mesonet | 60 | 38 | 48 | 38 | 100 | 55 | 30.19 | 30.01 | 0.04 | 15 | ENE |
| Hillsborough-Duke | NJ | 2026-05-09 | Mesonet | 67 | 45 | 57 | 45 | 100 | 58 | 29.91 | 29.81 | 0.09 | 15 | WSW |
| Hillsborough-Duke | NJ | 2026-05-08 | Mesonet | 66 | 39 | 49 | 32 | 100 | 38 | 29.92 | 29.79 | 0.00 | 23 | N |
| Hillsborough-Duke | NJ | 2026-05-07 | Mesonet | 66 | 42 | 53 | 32 | 100 | 31 | 29.87 | 29.74 | 0.29 | 19 | N |
| Hillsborough-Duke | NJ | 2026-05-06 | Mesonet | 70 | 56 | 64 | 52 | 98 | 63 | 29.82 | 29.71 | 0.09 | 23 | SW |
| Hillsborough-Duke | NJ | 2026-05-05 | Mesonet | 84 | 47 | 59 | 44 | 100 | 26 | 29.86 | 29.72 | 0.00 | 36 | WSW |
| Hillsborough-Duke | NJ | 2026-05-04 | Mesonet | 74 | 34 | 47 | 32 | 98 | 31 | 29.95 | 29.78 | 0.00 | 24 | SW |
| Hillsborough-Duke | NJ | 2026-05-03 | Mesonet | 61 | 44 | 35 | 26 | 66 | 28 | 29.91 | 29.83 | 0.00 | 28 | NW |
| Hillsborough-Duke | NJ | 2026-05-02 | Mesonet | 62 | 44 | 49 | 30 | 100 | 33 | 29.90 | 29.81 | 0.00 | 17 | NNW |
| Hillsborough-Duke | NJ | 2026-05-01 | Mesonet | 66 | 35 | 49 | 35 | 100 | 37 | 29.93 | 29.82 | 0.00 | 15 | W |
| Hillsborough-Duke | NJ | 2026-04-30 | Mesonet | 63 | 47 | 54 | 43 | 100 | 53 | 29.85 | 29.71 | 0.24 | 20 | WNW |
| Hillsborough-Duke | NJ | 2026-04-29 | Mesonet | 68 | 45 | 51 | 39 | 100 | 45 | 30.06 | 29.80 | 0.28 | 18 | SE |
| Hillsborough-Duke | NJ | 2026-04-28 | Mesonet | 65 | 34 | 48 | 34 | 100 | 41 | 30.24 | 30.03 | 0.00 | 13 | S |
| Hillsborough-Duke | NJ | 2026-04-27 | Mesonet | 70 | 34 | 49 | 34 | 100 | 34 | 30.26 | 30.18 | 0.00 | 15 | E |
| Hillsborough-Duke | NJ | 2026-04-25 | Mesonet | 51 | 41 | 46 | 35 | 100 | 54 | 30.05 | 29.91 | 1.21 | 20 | SE |
| Hillsborough-Duke | NJ | 2026-04-11 | Mesonet | 64 | 45 | 50 | 28 | 94 | 28 | 30.38 | 30.07 | 0.00 | 29 | N |
| Hillsborough-Duke | NJ | 2026-04-24 | Mesonet | 74 | 42 | 50 | 35 | 95 | 31 | 29.91 | 29.74 | 0.00 | 18 | ESE |
| Hillsborough-Duke | NJ | 2026-04-23 | Mesonet | 77 | 37 | 52 | 34 | 100 | 26 | 29.98 | 29.80 | 0.00 | 23 | NW |
| Hillsborough-Duke | NJ | 2026-04-22 | Mesonet | 59 | 43 | 50 | 33 | 100 | 63 | 30.23 | 29.94 | 0.02 | 10 | SSE |
| Hillsborough-Duke | NJ | 2026-04-21 | Mesonet | 57 | 22 | 34 | 13 | 100 | 24 | 30.41 | 30.19 | 0.00 | 16 | SSE |
| Hillsborough-Duke | NJ | 2026-04-20 | Mesonet | 53 | 27 | 41 | 18 | 100 | 32 | 30.33 | 30.09 | 0.00 | 24 | NNW |
| Hillsborough-Duke | NJ | 2026-04-19 | Mesonet | 52 | 33 | 51 | 32 | 100 | 60 | 30.10 | 29.75 | 0.04 | 29 | NNW |
| Hillsborough-Duke | NJ | 2026-04-18 | Mesonet | 67 | 49 | 57 | 49 | 100 | 59 | 30.06 | 29.91 | 0.00 | 20 | SE |
| Hillsborough-Duke | NJ | 2026-04-17 | Mesonet | 80 | 54 | 63 | 54 | 100 | 41 | 29.99 | 29.72 | 0.00 | 22 | NW |
| Hillsborough-Duke | NJ | 2026-04-16 | Mesonet | 91 | 60 | 69 | 58 | 100 | 35 | 29.91 | 29.70 | 0.00 | 22 | SW |
| Hillsborough-Duke | NJ | 2026-04-15 | Mesonet | 90 | 57 | 68 | 56 | 100 | 43 | 29.95 | 29.81 | 0.00 | 22 | W |
| Hillsborough-Duke | NJ | 2026-04-14 | Mesonet | 88 | 54 | 63 | 54 | 100 | 38 | 30.01 | 29.80 | 0.00 | 26 | WSW |
| Hillsborough-Duke | NJ | 2026-04-13 | Mesonet | 81 | 40 | 61 | 39 | 99 | 44 | 30.29 | 29.91 | 0.00 | 28 | WSW |
| Hillsborough-Duke | NJ | 2026-04-12 | Mesonet | 64 | 33 | 44 | 27 | 88 | 35 | 30.52 | 30.29 | 0.00 | 19 | SSE |
| Hillsborough-Duke | NJ | 2026-05-10 | Mesonet | 64 | 46 | 62 | 46 | 100 | 89 | 29.92 | 29.84 | 0.01 | 11 | N |
data collection created in 0.011487007141113 (queried in 0.003967) rendered in: 6.8902969360352E-5

